Time;durP1;ratioP1;P1;durP2;ratioP2;P2;SDS_P1;SDS_P2;PMS_P1;PMS_P2;Temp;Humidity;BMP_temperature;BMP_pressure;BME280_temperature;BME280_humidity;BME280_pressure;Samples;Min_cycle;Max_cycle;Signal;HPM_P1;HPM_P2
2022/08/30 00:02:12;;;;;;;5.80;5.30;;;21.10;81.50;;;;;;5055222;28;20190;-83
2022/08/30 00:04:38;;;;;;;5.47;5.03;;;21.10;81.60;;;;;;5054580;28;20184;-82
2022/08/30 00:07:03;;;;;;;6.60;5.05;;;21.00;81.50;;;;;;5050309;28;21629;-83
2022/08/30 00:09:31;;;;;;;5.57;5.07;;;21.00;81.70;;;;;;5050860;28;20184;-83
2022/08/30 00:11:56;;;;;;;5.95;5.32;;;21.00;81.50;;;;;;5055256;28;20282;-83
2022/08/30 00:14:24;;;;;;;6.10;5.63;;;21.00;81.60;;;;;;5051766;28;20198;-82
2022/08/30 00:16:50;;;;;;;4.90;4.70;;;21.00;81.60;;;;;;5058364;28;20179;-83
2022/08/30 00:19:15;;;;;;;5.10;4.85;;;21.00;81.90;;;;;;5051980;28;20284;-82
2022/08/30 00:21:41;;;;;;;5.10;4.75;;;21.00;82.20;;;;;;5047324;28;20183;-83
2022/08/30 00:24:07;;;;;;;4.63;4.45;;;21.00;81.90;;;;;;5050169;28;20199;-82
2022/08/30 00:26:33;;;;;;;5.68;5.10;;;21.00;82.20;;;;;;5050888;28;20175;-83
2022/08/30 00:28:59;;;;;;;5.72;5.22;;;21.00;82.40;;;;;;5051739;28;20668;-83
2022/08/30 00:31:24;;;;;;;6.80;5.03;;;21.00;82.40;;;;;;5054242;28;20557;-83
2022/08/30 00:33:50;;;;;;;5.00;4.72;;;21.00;82.40;;;;;;5049417;28;20180;-82
2022/08/30 00:36:16;;;;;;;5.28;4.90;;;21.00;82.40;;;;;;5050065;28;20207;-83
2022/08/30 00:38:41;;;;;;;5.18;4.88;;;21.00;82.50;;;;;;5055397;28;20218;-83
2022/08/30 00:41:07;;;;;;;4.72;4.53;;;21.00;82.60;;;;;;5049296;28;20640;-83
2022/08/30 00:43:34;;;;;;;4.80;4.50;;;20.90;82.40;;;;;;5049711;28;20690;-83
2022/08/30 00:46:03;;;;;;;4.63;4.43;;;20.90;82.70;;;;;;5058788;28;20275;-83
2022/08/30 00:48:30;;;;;;;6.07;4.95;;;20.90;83.00;;;;;;5052910;28;20278;-83
2022/08/30 00:51:06;;;;;;;6.03;5.28;;;20.90;82.80;;;;;;5051550;28;20611;-83
2022/08/30 00:53:36;;;;;;;5.35;5.05;;;20.80;82.10;;;;;;5054477;28;20183;-83
2022/08/30 00:56:03;;;;;;;6.10;5.28;;;20.80;82.20;;;;;;5054412;28;20264;-83
2022/08/30 00:58:33;;;;;;;5.88;5.47;;;20.70;82.30;;;;;;5058319;28;20222;-83
2022/08/30 01:01:00;;;;;;;5.38;4.97;;;20.70;82.50;;;;;;5054653;28;20172;-83
2022/08/30 01:03:26;;;;;;;5.30;4.80;;;20.70;82.70;;;;;;5050252;28;20690;-82
2022/08/30 01:05:52;;;;;;;5.30;5.00;;;20.70;82.80;;;;;;5051220;28;20245;-84
2022/08/30 01:08:21;;;;;;;5.38;5.03;;;20.70;82.60;;;;;;5053837;28;20211;-83
2022/08/30 01:10:47;;;;;;;5.32;4.93;;;20.70;82.40;;;;;;5058793;28;20309;-83
2022/08/30 01:13:14;;;;;;;5.70;5.30;;;20.70;82.50;;;;;;5055657;28;20179;-83
2022/08/30 01:15:42;;;;;;;4.78;4.55;;;20.70;82.20;;;;;;5056581;28;20239;-83
2022/08/30 01:18:08;;;;;;;5.35;5.05;;;20.60;82.20;;;;;;5054991;28;20211;-84
2022/08/30 01:20:45;;;;;;;5.20;4.32;;;20.60;82.60;;;;;;5054485;28;20229;-83
2022/08/30 01:23:14;;;;;;;4.75;4.38;;;20.60;81.70;;;;;;5056415;28;20191;-83
2022/08/30 01:25:43;;;;;;;5.80;5.40;;;20.60;82.00;;;;;;5057157;28;20187;-84
2022/08/30 01:28:13;;;;;;;5.78;5.28;;;20.60;81.90;;;;;;5055092;28;20798;-83
2022/08/30 01:30:41;;;;;;;4.85;4.65;;;20.60;82.00;;;;;;5055187;28;20171;-83
2022/08/30 01:33:09;;;;;;;5.13;4.70;;;20.60;82.20;;;;;;5055252;28;20221;-83
2022/08/30 01:35:43;;;;;;;5.82;5.32;;;20.60;81.90;;;;;;5059205;28;20198;-82
2022/08/30 01:38:11;;;;;;;5.68;4.90;;;20.60;81.50;;;;;;5054392;28;20199;-83
2022/08/30 01:40:37;;;;;;;4.95;4.75;;;20.50;81.90;;;;;;5056210;28;20211;-84
2022/08/30 01:43:03;;;;;;;7.43;5.30;;;20.50;82.30;;;;;;5059634;28;20183;-84
2022/08/30 01:45:28;;;;;;;5.07;4.80;;;20.50;82.40;;;;;;5060239;28;20196;-84
2022/08/30 01:47:54;;;;;;;4.85;4.53;;;20.50;82.10;;;;;;5061435;28;20191;-83
2022/08/30 01:50:20;;;;;;;5.32;4.93;;;20.50;82.40;;;;;;5055955;28;20718;-83
2022/08/30 01:52:46;;;;;;;4.95;4.75;;;20.50;82.70;;;;;;5060523;28;20211;-82
2022/08/30 01:55:11;;;;;;;4.97;4.68;;;20.50;83.50;;;;;;5063771;28;20191;-83
2022/08/30 01:57:37;;;;;;;5.03;4.72;;;20.50;84.10;;;;;;5060432;28;20183;-82
2022/08/30 02:00:06;;;;;;;4.93;4.53;;;20.50;84.60;;;;;;5062178;28;20210;-84
2022/08/30 02:02:32;;;;;;;5.63;5.22;;;20.50;83.70;;;;;;5065649;28;20188;-82
2022/08/30 02:04:58;;;;;;;4.68;4.47;;;20.40;83.60;;;;;;5066970;28;20179;-84
2022/08/30 02:07:24;;;;;;;5.95;5.55;;;20.30;83.60;;;;;;5053748;28;20267;-83
2022/08/30 02:09:51;;;;;;;6.35;5.78;;;20.30;84.00;;;;;;5056694;28;20184;-83
2022/08/30 02:12:17;;;;;;;6.25;5.85;;;20.30;83.80;;;;;;5055318;28;20175;-83
2022/08/30 02:14:43;;;;;;;5.65;5.18;;;20.30;84.00;;;;;;5061303;28;20248;-83
2022/08/30 02:17:11;;;;;;;6.03;5.13;;;20.20;83.90;;;;;;5055209;28;20199;-83
2022/08/30 02:19:37;;;;;;;6.80;6.28;;;20.20;84.30;;;;;;5057718;28;20211;-83
2022/08/30 02:22:03;;;;;;;8.32;5.32;;;20.20;85.40;;;;;;5056543;28;20270;-84
2022/08/30 02:24:29;;;;;;;5.97;5.60;;;20.20;85.00;;;;;;5054117;28;20184;-84
2022/08/30 02:26:55;;;;;;;5.32;4.97;;;20.20;84.70;;;;;;5054362;28;20179;-84
2022/08/30 02:29:21;;;;;;;5.25;4.88;;;20.10;85.20;;;;;;5052768;28;20196;-83
2022/08/30 02:31:47;;;;;;;5.68;5.28;;;20.10;84.80;;;;;;5053179;28;20184;-83
2022/08/30 02:34:13;;;;;;;5.15;4.88;;;20.00;84.10;;;;;;5055080;28;20843;-84
2022/08/30 02:36:40;;;;;;;6.22;5.72;;;20.00;83.80;;;;;;5048033;28;20620;-84
2022/08/30 02:39:07;;;;;;;5.70;5.30;;;20.00;83.70;;;;;;5055516;28;20226;-83
2022/08/30 02:41:32;;;;;;;5.30;5.00;;;20.00;83.50;;;;;;5055623;28;20266;-83
2022/08/30 02:43:59;;;;;;;5.53;5.18;;;20.00;84.90;;;;;;5053234;28;20314;-83
2022/08/30 02:46:26;;;;;;;5.80;5.45;;;20.00;84.80;;;;;;5054663;28;20180;-83
2022/08/30 02:48:51;;;;;;;6.00;5.50;;;20.00;85.10;;;;;;5052153;28;20195;-83
2022/08/30 02:51:17;;;;;;;6.20;5.07;;;20.00;84.80;;;;;;5053457;28;20336;-83
2022/08/30 02:53:43;;;;;;;5.05;4.78;;;19.90;84.80;;;;;;5055917;28;20183;-83
2022/08/30 02:56:11;;;;;;;6.20;5.80;;;19.90;84.40;;;;;;5053788;28;20175;-82
2022/08/30 02:58:37;;;;;;;6.50;6.00;;;19.90;83.90;;;;;;5052278;28;20227;-83
2022/08/30 03:01:04;;;;;;;5.53;5.22;;;19.90;83.80;;;;;;5053424;28;20596;-83
2022/08/30 03:03:30;;;;;;;5.93;5.53;;;19.90;84.00;;;;;;5052911;28;20186;-83
2022/08/30 03:05:56;;;;;;;6.30;5.75;;;19.90;84.10;;;;;;5058078;28;20192;-82
2022/08/30 03:08:23;;;;;;;5.90;5.40;;;19.90;84.40;;;;;;5048474;28;20187;-82
2022/08/30 03:10:49;;;;;;;6.15;5.75;;;19.90;84.20;;;;;;5056381;28;20620;-82
2022/08/30 03:13:14;;;;;;;5.07;4.82;;;19.90;85.80;;;;;;5053504;28;20186;-83
2022/08/30 03:15:40;;;;;;;6.35;5.85;;;19.90;85.70;;;;;;5053132;28;20594;-82
2022/08/30 03:18:07;;;;;;;5.82;5.32;;;19.90;85.60;;;;;;5058026;28;20602;-83
2022/08/30 03:20:34;;;;;;;8.75;6.15;;;19.90;86.10;;;;;;5053635;28;20183;-82
2022/08/30 03:23:00;;;;;;;6.50;5.57;;;19.90;86.30;;;;;;5055763;28;20266;-83
2022/08/30 03:25:26;;;;;;;5.85;5.45;;;19.80;87.50;;;;;;5057402;28;20179;-83
2022/08/30 03:27:52;;;;;;;5.47;5.03;;;19.80;86.80;;;;;;5056495;28;20187;-84
2022/08/30 03:30:19;;;;;;;5.38;4.97;;;19.70;86.20;;;;;;5058707;28;20191;-84
2022/08/30 03:32:44;;;;;;;5.78;5.35;;;19.70;86.80;;;;;;5050269;28;20190;-83
2022/08/30 03:35:11;;;;;;;10.40;5.45;;;19.70;86.80;;;;;;5052931;28;20184;-83
2022/08/30 03:37:37;;;;;;;9.05;5.00;;;19.70;87.50;;;;;;5056093;28;20617;-84
2022/08/30 03:40:07;;;;;;;6.15;5.53;;;19.60;86.90;;;;;;5054337;28;20266;-82
2022/08/30 03:42:34;;;;;;;5.85;5.45;;;19.60;86.90;;;;;;5057475;28;20622;-83
2022/08/30 03:45:01;;;;;;;6.50;5.25;;;19.60;87.00;;;;;;5051286;28;20186;-83
2022/08/30 03:47:27;;;;;;;6.82;5.43;;;19.60;87.10;;;;;;5055205;28;20186;-83
2022/08/30 03:49:53;;;;;;;5.70;5.25;;;19.60;86.90;;;;;;5053541;28;20233;-81
2022/08/30 03:52:19;;;;;;;5.60;5.22;;;19.50;87.10;;;;;;5055219;28;20179;-82
2022/08/30 03:54:45;;;;;;;5.32;5.03;;;19.50;87.30;;;;;;5055202;28;20175;-83
2022/08/30 03:57:10;;;;;;;7.63;5.90;;;19.50;87.40;;;;;;5050371;28;20255;-83
2022/08/30 03:59:36;;;;;;;6.30;5.80;;;19.50;88.30;;;;;;5047773;28;20230;-83
2022/08/30 04:02:02;;;;;;;6.15;5.75;;;19.40;88.50;;;;;;5051055;28;20191;-82
2022/08/30 04:04:28;;;;;;;7.07;6.45;;;19.40;89.00;;;;;;5048840;28;20188;-82
2022/08/30 04:06:54;;;;;;;6.60;6.10;;;19.30;89.30;;;;;;5058036;28;20183;-82
2022/08/30 04:09:20;;;;;;;6.70;6.20;;;19.30;89.30;;;;;;5054890;28;20186;-83
2022/08/30 04:11:46;;;;;;;6.25;5.60;;;19.20;89.30;;;;;;5047409;28;20179;-82
2022/08/30 04:14:11;;;;;;;7.07;6.47;;;19.20;89.10;;;;;;5056663;28;20191;-84
2022/08/30 04:16:37;;;;;;;6.03;5.53;;;19.20;89.20;;;;;;5058405;28;20641;-82
2022/08/30 04:19:03;;;;;;;7.30;6.60;;;19.20;89.70;;;;;;5053532;28;20215;-84
2022/08/30 04:21:29;;;;;;;6.50;6.00;;;19.20;90.30;;;;;;5052922;28;20180;-83
2022/08/30 04:23:54;;;;;;;6.35;5.70;;;19.20;89.90;;;;;;5052743;28;20183;-83
2022/08/30 04:26:20;;;;;;;5.90;5.40;;;19.20;89.60;;;;;;5053419;28;20183;-83
2022/08/30 04:28:46;;;;;;;6.50;5.93;;;19.20;89.60;;;;;;5056053;28;20197;-83
2022/08/30 04:31:14;;;;;;;5.97;5.57;;;19.20;89.60;;;;;;5051764;28;20183;-83
2022/08/30 04:33:41;;;;;;;6.60;5.68;;;19.20;89.40;;;;;;5055624;28;20258;-85
2022/08/30 04:36:08;;;;;;;6.95;6.30;;;19.20;89.20;;;;;;5047643;28;20569;-83
2022/08/30 04:38:36;;;;;;;6.80;5.93;;;19.20;89.50;;;;;;5056010;28;20223;-84
2022/08/30 04:41:09;;;;;;;6.82;6.18;;;19.30;89.60;;;;;;5055979;28;20783;-83
2022/08/30 04:43:35;;;;;;;6.97;6.38;;;19.40;89.70;;;;;;5057494;28;20214;-83
2022/08/30 04:46:07;;;;;;;7.43;6.75;;;19.40;89.90;;;;;;5059455;28;20226;-84
2022/08/30 04:48:34;;;;;;;7.57;6.30;;;19.40;89.60;;;;;;5056711;28;20211;-84
2022/08/30 04:51:05;;;;;;;6.95;5.95;;;19.50;90.00;;;;;;5061549;28;20191;-84
2022/08/30 04:53:31;;;;;;;7.30;6.65;;;19.50;89.50;;;;;;5057459;28;20207;-84
2022/08/30 04:55:57;;;;;;;9.32;6.45;;;19.50;90.10;;;;;;5058061;28;20183;-83
2022/08/30 04:58:23;;;;;;;6.97;6.47;;;19.50;89.50;;;;;;5057289;28;20218;-84
2022/08/30 05:00:48;;;;;;;6.50;5.88;;;19.50;89.90;;;;;;5055492;28;20218;-83
2022/08/30 05:03:16;;;;;;;6.47;5.88;;;19.50;89.50;;;;;;5059382;28;20203;-82
2022/08/30 05:05:47;;;;;;;11.38;6.55;;;19.50;89.70;;;;;;5057819;28;20205;-82
2022/08/30 05:08:15;;;;;;;8.05;5.95;;;19.50;88.50;;;;;;5057237;28;20176;-83
2022/08/30 05:10:44;;;;;;;6.13;5.72;;;19.50;88.60;;;;;;5050213;28;20199;-83
2022/08/30 05:13:11;;;;;;;9.75;6.78;;;19.60;89.10;;;;;;5055455;28;20576;-83
2022/08/30 05:15:38;;;;;;;5.97;5.53;;;19.60;88.50;;;;;;5055819;28;20188;-83
2022/08/30 05:18:04;;;;;;;6.03;5.47;;;19.60;88.60;;;;;;5051197;28;20829;-82
2022/08/30 05:20:30;;;;;;;6.72;6.13;;;19.70;89.50;;;;;;5055227;28;20231;-82
2022/08/30 05:22:55;;;;;;;6.57;5.45;;;19.70;89.90;;;;;;5058219;28;20233;-83
2022/08/30 05:25:24;;;;;;;7.70;6.90;;;19.70;88.80;;;;;;5061250;28;20183;-83
2022/08/30 05:27:51;;;;;;;6.85;5.97;;;19.80;88.80;;;;;;5057055;28;20180;-83
2022/08/30 05:30:18;;;;;;;6.88;6.25;;;19.80;88.60;;;;;;5058215;28;20266;-83
2022/08/30 05:32:44;;;;;;;7.00;6.40;;;19.80;87.90;;;;;;5056195;28;20203;-82
2022/08/30 05:35:11;;;;;;;8.13;6.90;;;19.80;88.30;;;;;;5056177;28;21087;-83
2022/08/30 05:37:37;;;;;;;7.18;6.57;;;19.90;89.00;;;;;;5054368;28;20186;-84
2022/08/30 05:40:04;;;;;;;6.93;6.43;;;19.90;89.10;;;;;;5058950;28;20184;-82
2022/08/30 05:42:30;;;;;;;6.60;6.10;;;19.90;88.80;;;;;;5060252;28;20187;-82
2022/08/30 05:44:56;;;;;;;7.55;6.80;;;19.90;88.80;;;;;;5058102;28;20202;-83
2022/08/30 05:47:23;;;;;;;7.93;6.72;;;19.90;89.10;;;;;;5054851;28;20805;-83
2022/08/30 05:49:49;;;;;;;7.55;7.00;;;19.90;88.90;;;;;;5048312;28;20630;-83
2022/08/30 05:52:17;;;;;;;8.07;7.03;;;19.90;88.80;;;;;;5057193;28;20197;-83
2022/08/30 05:54:51;;;;;;;7.05;6.50;;;19.80;88.30;;;;;;5058571;28;20739;-88
2022/08/30 05:57:18;;;;;;;7.18;6.53;;;19.80;87.50;;;;;;5052695;28;20179;-84
2022/08/30 05:59:44;;;;;;;7.72;7.10;;;19.80;87.80;;;;;;5049851;28;20916;-84
2022/08/30 06:02:10;;;;;;;9.77;7.18;;;19.90;87.70;;;;;;5048905;28;20188;-80
2022/08/30 06:04:36;;;;;;;8.82;6.70;;;19.90;87.80;;;;;;5047977;28;20184;-80
2022/08/30 06:07:02;;;;;;;8.10;7.30;;;20.00;88.60;;;;;;5051400;28;20190;-80
2022/08/30 06:09:28;;;;;;;8.13;7.43;;;20.10;88.20;;;;;;5051813;28;20179;-80
2022/08/30 06:11:54;;;;;;;7.38;6.65;;;20.10;88.70;;;;;;5053585;28;20184;-80
2022/08/30 06:14:20;;;;;;;8.15;7.18;;;20.20;88.90;;;;;;5054053;28;20192;-80
2022/08/30 06:16:46;;;;;;;8.60;7.63;;;20.20;88.20;;;;;;5052905;28;20264;-80
2022/08/30 06:19:13;;;;;;;7.28;6.45;;;20.20;87.80;;;;;;5046736;28;20577;-79
2022/08/30 06:21:40;;;;;;;6.75;6.18;;;20.20;87.80;;;;;;5047961;28;20270;-80
2022/08/30 06:24:08;;;;;;;7.50;6.80;;;20.30;87.70;;;;;;5054551;28;20572;-80
2022/08/30 06:26:42;;;;;;;7.78;7.03;;;20.40;87.50;;;;;;5049456;28;20850;-80
2022/08/30 06:29:09;;;;;;;7.38;6.68;;;20.40;87.10;;;;;;5057220;28;20191;-84
2022/08/30 06:31:35;;;;;;;8.50;7.35;;;20.50;87.30;;;;;;5053795;28;20187;-83
2022/08/30 06:34:01;;;;;;;8.23;6.78;;;20.50;87.40;;;;;;5059926;28;20690;-82
2022/08/30 06:36:27;;;;;;;8.57;7.07;;;20.60;87.30;;;;;;5062746;28;20184;-83
2022/08/30 06:38:54;;;;;;;7.70;6.45;;;20.70;87.20;;;;;;5067337;28;20207;-82
2022/08/30 06:41:26;;;;;;;10.27;6.85;;;20.70;87.10;;;;;;5065775;28;20179;-81
2022/08/30 06:43:53;;;;;;;7.47;6.75;;;20.90;87.00;;;;;;5063884;28;20301;-81
2022/08/30 06:46:22;;;;;;;8.65;7.22;;;21.00;87.40;;;;;;5073934;28;20175;-82
2022/08/30 06:48:48;;;;;;;8.38;7.03;;;21.10;88.10;;;;;;5075916;28;20226;-82
2022/08/30 06:51:18;;;;;;;8.60;7.63;;;21.20;88.30;;;;;;5073113;28;20183;-82
2022/08/30 06:53:43;;;;;;;8.27;7.50;;;21.30;88.00;;;;;;5069926;28;20179;-82
2022/08/30 06:56:11;;;;;;;7.63;6.90;;;21.40;87.60;;;;;;5077619;28;20195;-82
2022/08/30 06:58:38;;;;;;;7.60;6.95;;;21.40;87.20;;;;;;5063944;28;20215;-86
2022/08/30 07:01:06;;;;;;;9.52;7.10;;;21.50;87.10;;;;;;5051533;28;20183;-80
2022/08/30 07:03:32;;;;;;;7.63;6.78;;;21.60;86.90;;;;;;5051034;28;20831;-80
2022/08/30 07:05:58;;;;;;;6.70;6.07;;;21.70;87.40;;;;;;5046823;28;20184;-80
2022/08/30 07:08:24;;;;;;;5.80;5.40;;;21.70;86.70;;;;;;5050800;28;20190;-80
2022/08/30 07:10:52;;;;;;;8.68;6.68;;;21.70;86.50;;;;;;5047921;28;20211;-81
2022/08/30 07:13:19;;;;;;;8.38;7.57;;;21.80;86.60;;;;;;5047419;28;20559;-81
2022/08/30 07:15:45;;;;;;;7.18;6.45;;;21.80;85.80;;;;;;5055426;28;20267;-80
2022/08/30 07:20:56;;;;;;;7.45;6.88;;;21.80;86.00;;;;;;5052408;28;20194;-81
2022/08/30 07:23:22;;;;;;;7.35;6.72;;;21.90;85.80;;;;;;5046965;28;20269;-80
2022/08/30 07:25:49;;;;;;;7.47;6.88;;;21.90;86.10;;;;;;5049073;28;20184;-81
2022/08/30 07:28:15;;;;;;;8.35;6.82;;;21.90;86.10;;;;;;5077340;28;20188;-81
2022/08/30 07:30:41;;;;;;;9.02;7.45;;;21.70;86.90;;;;;;5046072;28;20187;-81
2022/08/30 07:33:07;;;;;;;12.95;8.02;;;21.70;86.10;;;;;;5054861;28;20236;-80
2022/08/30 07:35:33;;;;;;;7.95;6.85;;;21.70;86.40;;;;;;5049320;28;20634;-80
2022/08/30 07:37:59;;;;;;;8.07;7.28;;;21.70;85.90;;;;;;5048121;28;20186;-80
2022/08/30 07:40:25;;;;;;;7.70;6.95;;;21.60;86.50;;;;;;5049637;28;20305;-80
2022/08/30 07:42:51;;;;;;;8.05;6.90;;;21.60;86.50;;;;;;5050602;28;20411;-78
2022/08/30 07:45:17;;;;;;;6.82;6.32;;;21.60;86.40;;;;;;5070817;28;20206;-78
2022/08/30 07:47:44;;;;;;;9.68;6.85;;;21.60;86.60;;;;;;5048334;28;20652;-79
2022/08/30 07:50:11;;;;;;;6.05;5.65;;;21.70;85.90;;;;;;5050917;28;20179;-78
2022/08/30 07:52:37;;;;;;;7.07;6.55;;;21.70;86.20;;;;;;5049189;28;20185;-79
2022/08/30 07:55:04;;;;;;;6.25;5.70;;;21.70;85.60;;;;;;5046247;28;20179;-80
2022/08/30 07:57:33;;;;;;;7.25;6.68;;;21.70;86.00;;;;;;5050844;28;20198;-79
2022/08/30 07:59:59;;;;;;;6.57;5.72;;;21.70;86.70;;;;;;5046851;28;21448;-81
2022/08/30 08:02:25;;;;;;;7.60;6.93;;;21.80;86.10;;;;;;5043630;28;20181;-80
2022/08/30 08:04:51;;;;;;;8.38;7.20;;;21.80;86.30;;;;;;5046409;28;20182;-80
2022/08/30 08:07:16;;;;;;;10.65;7.88;;;21.90;86.80;;;;;;5046346;28;20189;-81
2022/08/30 08:09:42;;;;;;;10.65;8.35;;;21.90;86.30;;;;;;5050847;28;20183;-80
2022/08/30 08:12:08;;;;;;;7.57;6.97;;;21.90;86.70;;;;;;5054658;28;20183;-81
2022/08/30 08:14:34;;;;;;;9.88;6.80;;;22.00;86.50;;;;;;5047422;28;20664;-81
2022/08/30 08:17:00;;;;;;;10.20;7.82;;;21.90;86.60;;;;;;5053111;28;20187;-82
2022/08/30 08:19:26;;;;;;;9.25;7.53;;;21.90;86.80;;;;;;5048061;28;20214;-82
2022/08/30 08:21:58;;;;;;;8.10;7.03;;;22.00;87.00;;;;;;5049979;28;20182;-82
2022/08/30 08:24:25;;;;;;;8.45;7.75;;;22.00;87.00;;;;;;5051407;28;20670;-82
2022/08/30 08:26:51;;;;;;;8.52;7.72;;;22.20;86.80;;;;;;5052095;28;20214;-80
2022/08/30 08:29:17;;;;;;;8.80;7.78;;;22.20;86.60;;;;;;5047046;28;20230;-80
2022/08/30 08:31:44;;;;;;;8.82;8.02;;;22.30;86.60;;;;;;5046437;28;20743;-80
2022/08/30 08:34:10;;;;;;;8.43;7.57;;;22.30;87.20;;;;;;5044980;28;20183;-78
2022/08/30 08:36:36;;;;;;;12.95;8.70;;;22.30;85.60;;;;;;5046611;28;20184;-80
2022/08/30 08:39:04;;;;;;;9.98;7.72;;;22.30;85.60;;;;;;5047573;28;20214;-80
2022/08/30 08:41:38;;;;;;;12.65;8.43;;;22.30;86.00;;;;;;5049645;28;20187;-80
2022/08/30 08:44:18;;;;;;;8.57;7.72;;;22.30;85.50;;;;;;5045962;28;20186;-81
2022/08/30 08:47:07;;;;;;;9.60;7.70;;;22.30;85.10;;;;;;5049492;28;20214;-80
2022/08/30 08:49:36;;;;;;;9.45;8.52;;;22.30;86.20;;;;;;5051298;28;20179;-80
2022/08/30 08:55:01;;;;;;;8.75;7.68;;;22.30;85.70;;;;;;5049230;28;20234;-80
2022/08/30 08:57:32;;;;;;;10.27;7.90;;;22.20;86.00;;;;;;5049625;28;20189;-80
2022/08/30 08:59:58;;;;;;;10.70;7.80;;;22.20;86.10;;;;;;5049718;28;20961;-80
2022/08/30 09:02:33;;;;;;;7.40;6.70;;;22.20;86.50;;;;;;5052746;28;20183;-80
2022/08/30 09:05:01;;;;;;;11.18;8.00;;;22.30;86.30;;;;;;5049929;28;20191;-80
2022/08/30 09:07:34;;;;;;;12.23;8.25;;;22.40;86.00;;;;;;5047386;28;20184;-80
2022/08/30 09:10:01;;;;;;;15.15;7.60;;;22.50;85.00;;;;;;5047427;28;20567;-81
2022/08/30 09:12:27;;;;;;;7.30;6.60;;;22.60;85.50;;;;;;5052160;28;20187;-82
2022/08/30 09:14:58;;;;;;;7.32;6.68;;;22.70;85.40;;;;;;5048670;28;20183;-82
2022/08/30 09:17:24;;;;;;;6.00;5.63;;;22.90;85.30;;;;;;5051238;28;20229;-83
2022/08/30 09:19:52;;;;;;;10.50;7.20;;;23.10;85.60;;;;;;5046557;28;20657;-82
2022/08/30 09:22:25;;;;;;;8.55;6.93;;;23.30;85.20;;;;;;5052002;28;20183;-83
2022/08/30 09:25:05;;;;;;;8.15;7.30;;;23.50;85.40;;;;;;5048326;28;20591;-80
2022/08/30 09:27:35;;;;;;;7.68;7.07;;;23.70;84.90;;;;;;5056252;28;20188;-82
2022/08/30 09:30:17;;;;;;;8.73;8.00;;;24.00;84.70;;;;;;5053528;28;20191;-79
2022/08/30 09:32:51;;;;;;;9.73;7.80;;;24.20;83.60;;;;;;5058963;28;20182;-82
2022/08/30 09:35:33;;;;;;;8.40;7.70;;;24.40;83.10;;;;;;5056388;28;20662;-81
2022/08/30 09:38:23;;;;;;;7.90;7.07;;;24.70;82.80;;;;;;5055690;28;20186;-79
2022/08/30 09:40:55;;;;;;;8.15;7.35;;;24.90;82.70;;;;;;5060554;28;20198;-81
2022/08/30 09:43:23;;;;;;;8.45;7.65;;;25.10;82.10;;;;;;5051994;28;20187;-81
2022/08/30 09:46:06;;;;;;;8.60;7.70;;;25.30;81.80;;;;;;5062769;28;21006;-81
2022/08/30 09:48:43;;;;;;;12.45;8.02;;;25.50;81.00;;;;;;5057774;28;20551;-80
2022/08/30 09:51:14;;;;;;;8.13;7.32;;;25.60;81.40;;;;;;5054064;28;20198;-77
2022/08/30 09:53:43;;;;;;;10.32;8.10;;;25.80;80.60;;;;;;5072512;28;20214;-79
2022/08/30 09:56:23;;;;;;;9.43;7.95;;;26.00;79.50;;;;;;5063226;28;20183;-81
2022/08/30 09:58:59;;;;;;;9.48;8.50;;;26.20;79.30;;;;;;5057759;28;20275;-82
2022/08/30 10:01:56;;;;;;;11.52;9.07;;;26.30;78.50;;;;;;5054028;28;20186;-81
2022/08/30 10:05:02;;;;;;;10.73;8.27;;;26.40;77.70;;;;;;5061237;28;20191;-81
2022/08/30 10:07:42;;;;;;;8.68;7.43;;;26.60;77.70;;;;;;5058727;28;20190;-80
2022/08/30 10:10:30;;;;;;;7.72;7.10;;;26.70;77.20;;;;;;5051019;28;20769;-81
2022/08/30 10:13:17;;;;;;;8.52;7.72;;;26.80;77.00;;;;;;5049627;28;20246;-81
2022/08/30 10:15:59;;;;;;;7.63;7.07;;;27.00;76.80;;;;;;5049802;28;20576;-81
2022/08/30 10:18:28;;;;;;;8.93;8.02;;;27.20;76.60;;;;;;5053919;28;20280;-81
2022/08/30 10:21:15;;;;;;;13.43;8.98;;;27.30;76.50;;;;;;5047572;28;20190;-81
2022/08/30 10:23:49;;;;;;;10.73;8.32;;;27.50;75.80;;;;;;5055280;28;20186;-81
2022/08/30 10:26:24;;;;;;;9.20;8.25;;;27.70;75.50;;;;;;5051941;28;20183;-81
2022/08/30 10:29:01;;;;;;;10.00;8.90;;;27.80;75.60;;;;;;5053716;28;20574;-81
2022/08/30 10:31:45;;;;;;;9.32;8.43;;;28.00;74.60;;;;;;5053461;28;20231;-81
2022/08/30 10:34:28;;;;;;;10.25;9.32;;;28.20;74.30;;;;;;5051736;28;20187;-81
2022/08/30 10:37:01;;;;;;;9.63;8.70;;;28.30;74.10;;;;;;5052167;28;20240;-81
2022/08/30 10:39:30;;;;;;;10.48;9.38;;;28.50;73.40;;;;;;5058951;28;20223;-81
2022/08/30 10:42:06;;;;;;;10.15;8.57;;;28.60;73.50;;;;;;5061704;28;20183;-81
2022/08/30 10:44:38;;;;;;;10.35;8.00;;;28.80;73.30;;;;;;5059486;28;20225;-81
2022/08/30 10:47:30;;;;;;;9.85;7.55;;;29.00;72.40;;;;;;5062774;28;20190;-81
2022/08/30 10:50:27;;;;;;;9.38;8.55;;;29.30;72.30;;;;;;5061801;28;20271;-81
2022/08/30 10:53:06;;;;;;;9.15;7.68;;;29.60;71.70;;;;;;5063973;28;20180;-81
2022/08/30 10:55:44;;;;;;;7.63;7.03;;;30.00;71.40;;;;;;5076125;28;20260;-82
2022/08/30 10:58:10;;;;;;;8.95;7.97;;;30.50;72.10;;;;;;5076657;28;20210;-82
2022/08/30 11:01:10;;;;;;;8.60;7.65;;;31.30;71.40;;;;;;5080742;28;20218;-81
2022/08/30 11:03:58;;;;;;;7.90;7.10;;;32.20;68.90;;;;;;5074634;28;20195;-81
2022/08/30 11:06:25;;;;;;;7.72;7.20;;;33.20;67.50;;;;;;5055156;28;20317;-83
2022/08/30 11:09:10;;;;;;;6.82;6.40;;;34.10;66.50;;;;;;5053851;28;20180;-84
2022/08/30 11:11:54;;;;;;;10.95;7.60;;;35.00;65.10;;;;;;5053556;28;20707;-84
2022/08/30 11:14:21;;;;;;;7.75;6.97;;;35.80;62.20;;;;;;5050852;28;20175;-82
2022/08/30 11:16:50;;;;;;;7.32;6.53;;;36.70;61.20;;;;;;5057057;28;20183;-83
2022/08/30 11:19:39;;;;;;;10.88;6.63;;;37.30;59.10;;;;;;5055445;28;20210;-78
2022/08/30 11:22:27;;;;;;;6.63;6.13;;;38.10;57.80;;;;;;5005554;28;20201;-82
2022/08/30 11:25:08;;;;;;;7.65;6.35;;;38.50;56.20;;;;;;5005319;28;20271;-82
2022/08/30 11:27:47;;;;;;;7.40;6.78;;;38.60;54.40;;;;;;5005633;28;20271;-81
2022/08/30 11:30:25;;;;;;;6.15;5.75;;;38.70;55.40;;;;;;5004013;28;20195;-81
2022/08/30 11:33:14;;;;;;;8.00;7.15;;;38.90;54.90;;;;;;5003446;28;21370;-84
2022/08/30 11:35:48;;;;;;;8.02;7.28;;;38.90;53.70;;;;;;5013929;28;20236;-84
2022/08/30 11:38:27;;;;;;;7.20;6.68;;;38.20;55.00;;;;;;4998963;28;21049;-81
2022/08/30 11:40:56;;;;;;;7.45;6.95;;;37.60;53.90;;;;;;5008229;28;20187;-82
2022/08/30 11:43:49;;;;;;;7.38;6.88;;;36.80;55.80;;;;;;4992981;28;20287;-80
2022/08/30 11:46:27;;;;;;;7.53;7.05;;;36.30;55.80;;;;;;5009065;28;20203;-84
2022/08/30 11:49:04;;;;;;;10.45;7.28;;;35.80;56.90;;;;;;5013705;28;21170;-84
2022/08/30 11:51:33;;;;;;;6.97;6.55;;;35.50;60.30;;;;;;5010863;28;21038;-84
2022/08/30 11:54:21;;;;;;;6.85;6.35;;;35.30;58.10;;;;;;5007443;28;20640;-84
2022/08/30 11:56:59;;;;;;;8.57;6.53;;;35.30;58.90;;;;;;4934737;29;20225;-84
2022/08/30 11:59:46;;;;;;;7.15;6.53;;;35.30;57.90;;;;;;4943706;28;20234;-85
2022/08/30 12:02:45;;;;;;;6.40;5.93;;;35.20;57.80;;;;;;4943374;28;20198;-80
2022/08/30 12:05:37;;;;;;;6.18;5.93;;;35.40;59.00;;;;;;4951569;28;20186;-79
2022/08/30 12:08:32;;;;;;;6.75;6.25;;;35.60;56.70;;;;;;4948761;28;20194;-80
2022/08/30 12:11:21;;;;;;;6.75;6.35;;;35.80;56.70;;;;;;4967295;28;20183;-80
2022/08/30 12:13:47;;;;;;;6.70;6.30;;;35.90;55.60;;;;;;4910164;29;20255;-80
2022/08/30 12:16:20;;;;;;;6.18;5.78;;;35.90;56.90;;;;;;4921588;29;20199;-81
2022/08/30 12:18:58;;;;;;;7.32;6.68;;;36.00;55.60;;;;;;4927827;29;20225;-80
2022/08/30 12:21:30;;;;;;;5.95;5.65;;;36.30;56.50;;;;;;4919544;29;20199;-80
2022/08/30 12:24:01;;;;;;;8.60;5.63;;;36.70;55.60;;;;;;4916773;29;20187;-80
2022/08/30 12:26:30;;;;;;;6.97;6.10;;;37.10;54.60;;;;;;4903965;29;20669;-80
2022/08/30 12:29:25;;;;;;;6.40;5.88;;;37.50;56.20;;;;;;4920944;29;20667;-80
2022/08/30 12:32:00;;;;;;;6.22;5.78;;;37.70;52.80;;;;;;4926786;29;20189;-80
2022/08/30 12:34:39;;;;;;;7.30;6.47;;;38.20;53.60;;;;;;4981375;28;20195;-81
2022/08/30 12:37:18;;;;;;;6.90;6.35;;;38.50;51.60;;;;;;5006753;28;20239;-80
2022/08/30 12:39:45;;;;;;;8.50;5.63;;;38.60;51.80;;;;;;4994861;28;20617;-78
2022/08/30 12:42:22;;;;;;;5.75;5.53;;;38.70;54.90;;;;;;4980355;28;20181;-77
2022/08/30 12:44:51;;;;;;;7.20;6.32;;;38.90;52.00;;;;;;4982115;28;20248;-78
2022/08/30 12:47:24;;;;;;;7.15;6.43;;;39.10;52.80;;;;;;4983889;28;20189;-83
2022/08/30 12:49:51;;;;;;;6.30;5.78;;;39.40;53.10;;;;;;4987723;28;20643;-83
2022/08/30 12:52:27;;;;;;;6.93;6.28;;;39.60;51.60;;;;;;5045025;28;20206;-83
2022/08/30 12:55:03;;;;;;;6.00;5.53;;;39.80;50.30;;;;;;5050650;28;20261;-83
2022/08/30 12:57:38;;;;;;;8.50;5.78;;;40.10;52.00;;;;;;5047538;28;20638;-84
2022/08/30 13:00:07;;;;;;;6.88;6.30;;;40.30;50.00;;;;;;5049769;28;20699;-84
2022/08/30 13:02:43;;;;;;;9.35;6.70;;;40.40;50.30;;;;;;5050306;28;20193;-83
2022/08/30 13:05:31;;;;;;;6.50;6.00;;;40.40;49.50;;;;;;5050544;28;20243;-83
2022/08/30 13:08:14;;;;;;;6.57;6.07;;;40.40;50.40;;;;;;5049073;28;20194;-84